| time (UTC) | temp F | wind direction | speed MPH | gust MPH | rain 1hr in | rain 24hr in | rain mn in | humidity % | barometer mb |
| 20260831050013 | 52 | 280 | 0.0 | 4.0 | 0.00 | 0.01 | 0.00 | 80 | 1012.9 |
| 20260831044512 | 52 | 279 | 0.0 | 0.0 | 0.00 | 0.01 | 0.00 | 80 | 1012.9 |
| 20260831043008 | 53 | 279 | 0.0 | 0.0 | 0.00 | 0.01 | 0.00 | 80 | 1012.8 |
| 20260831041511 | 53 | 283 | 0.0 | 4.0 | 0.00 | 0.01 | 0.00 | 80 | 1012.7 |
| 20260831040005 | 54 | 281 | 0.0 | 7.0 | 0.00 | 0.01 | 0.01 | 80 | 1012.6 |
| 20260831034506 | 54 | 303 | 0.0 | 4.0 | 0.00 | 0.01 | 0.01 | 80 | 1012.6 |
| 20260831033004 | 54 | 277 | 0.0 | 5.0 | 0.00 | 0.01 | 0.01 | 80 | 1012.4 |
| 20260831031501 | 54 | 304 | 0.0 | 6.0 | 0.00 | 0.01 | 0.01 | 80 | 1012.3 |
| 20260831030001 | 54 | 281 | 0.0 | 4.0 | 0.00 | 0.01 | 0.01 | 81 | 1012.2 |
| 20260831024638 | 55 | 295 | 0.0 | 6.0 | 0.00 | 0.01 | 0.01 | 81 | 1012.2 |
| 20260831023058 | 55 | 267 | 0.0 | 0.0 | 0.00 | 0.01 | 0.01 | 81 | 1012.1 |
| 20260831021556 | 56 | 297 | 0.0 | 6.0 | 0.00 | 0.01 | 0.01 | 80 | 1011.9 |
| 20260831020056 | 56 | 322 | 0.0 | 5.0 | 0.00 | 0.01 | 0.01 | 81 | 1011.9 |
| 20260831014554 | 56 | 300 | 1.0 | 5.0 | 0.00 | 0.01 | 0.01 | 80 | 1011.8 |
| 20260831013109 | 56 | 281 | 0.0 | 0.0 | 0.00 | 0.01 | 0.01 | 80 | 1011.7 |
| 20260831011551 | 57 | 304 | 0.0 | 5.0 | 0.00 | 0.01 | 0.01 | 80 | 1011.9 |
| 20260831010048 | 57 | 277 | 0.0 | 4.0 | 0.00 | 0.01 | 0.01 | 79 | 1011.7 |
| 20260831004547 | 58 | 242 | 0.0 | 4.0 | 0.00 | 0.01 | 0.01 | 78 | 1011.8 |
| 20260831003044 | 58 | 284 | 0.0 | 4.0 | 0.00 | 0.01 | 0.01 | 77 | 1011.6 |
| 20260831001544 | 58 | 274 | 0.0 | 3.0 | 0.00 | 0.01 | 0.01 | 77 | 1011.1 |
| 20260831000043 | 59 | 241 | 0.0 | 6.0 | 0.00 | 0.01 | 0.01 | 76 | 1011.0 |
| 20260830234542 | 59 | 242 | 0.0 | 4.0 | 0.00 | 0.01 | 0.01 | 75 | 1010.9 |
| 20260830233041 | 60 | 272 | 0.0 | 0.0 | 0.00 | 0.01 | 0.01 | 74 | 1010.8 |
| 20260830231540 | 60 | 236 | 0.0 | 0.0 | 0.00 | 0.01 | 0.01 | 74 | 1010.7 |
| 20260830230041 | 60 | 277 | 0.0 | 0.0 | 0.00 | 0.01 | 0.01 | 74 | 1010.7 |
| 20260830224543 | 61 | 277 | 0.0 | 0.0 | 0.00 | 0.01 | 0.01 | 73 | 1010.8 |
| 20260830223040 | 62 | 275 | 0.0 | 4.0 | 0.00 | 0.01 | 0.01 | 71 | 1011.0 |
| 20260830221544 | 62 | 263 | 0.0 | 8.0 | 0.00 | 0.01 | 0.01 | 70 | 1010.9 |
| 20260830220039 | 63 | 329 | 0.0 | 9.0 | 0.00 | 0.01 | 0.01 | 66 | 1010.9 |
| 20260830214539 | 64 | 300 | 0.0 | 9.0 | 0.01 | 0.01 | 0.01 | 65 | 1010.9 |
| 20260830213037 | 64 | 306 | 0.0 | 7.0 | 0.01 | 0.01 | 0.01 | 66 | 1010.8 |
| 20260830211537 | 64 | 269 | 0.0 | 6.0 | 0.01 | 0.01 | 0.01 | 67 | 1010.7 |
| 20260830210036 | 64 | 317 | 0.0 | 9.0 | 0.01 | 0.01 | 0.01 | 69 | 1010.2 |
| 20260830204541 | 64 | 217 | 0.0 | 6.0 | 0.00 | 0.00 | 0.00 | 69 | 1010.2 |
| 20260830203047 | 66 | 298 | 0.0 | 14.0 | 0.00 | 0.00 | 0.00 | 66 | 1010.1 |
| 20260830201544 | 69 | 336 | 2.0 | 11.0 | 0.00 | 0.00 | 0.00 | 55 | 1009.6 |
| 20260830200035 | 71 | 360 | 0.0 | 2.0 | 0.00 | 0.00 | 0.00 | 55 | 1009.0 |
| 20260830194534 | 71 | 294 | 0.0 | 4.0 | 0.00 | 0.00 | 0.00 | 52 | 1009.0 |
| 20260830193031 | 72 | 296 | 0.0 | 0.0 | 0.00 | 0.00 | 0.00 | 52 | 1009.1 |
| 20260830191530 | 73 | 15 | 0.0 | 4.0 | 0.00 | 0.00 | 0.00 | 51 | 1009.2 |
| 20260830190035 | 74 | 309 | 0.0 | 1.0 | 0.00 | 0.00 | 0.00 | 47 | 1009.4 |
| 20260830184528 | 74 | 265 | 0.0 | 4.0 | 0.00 | 0.00 | 0.00 | 46 | 1009.5 |
| 20260830183026 | 72 | 261 | 0.0 | 4.0 | 0.00 | 0.00 | 0.00 | 49 | 1009.9 |
| 20260830181526 | 74 | 265 | 1.0 | 11.0 | 0.00 | 0.00 | 0.00 | 40 | 1010.0 |
| 20260830180024 | 76 | 271 | 3.0 | 12.0 | 0.00 | 0.00 | 0.00 | 35 | 1009.9 |
| 20260830174523 | 77 | 238 | 0.0 | 9.0 | 0.00 | 0.00 | 0.00 | 42 | 1010.0 |
| 20260830173032 | 77 | 290 | 3.0 | 15.0 | 0.00 | 0.00 | 0.00 | 38 | 1010.0 |
| 20260830171518 | 75 | 237 | 0.0 | 5.0 | 0.00 | 0.00 | 0.00 | 45 | 1010.1 |
| 20260830170017 | 74 | 292 | 1.0 | 8.0 | 0.00 | 0.00 | 0.00 | 41 | 1010.4 |
| 20260830164528 | 74 | 301 | 3.0 | 11.0 | 0.00 | 0.00 | 0.00 | 42 | 1010.6 |
| 20260830163015 | 75 | 293 | 2.0 | 12.0 | 0.00 | 0.00 | 0.00 | 37 | 1010.9 |
| 20260830161511 | 76 | 228 | 0.0 | 13.0 | 0.00 | 0.00 | 0.00 | 38 | 1010.9 |
| 20260830160013 | 75 | 266 | 3.0 | 15.0 | 0.00 | 0.00 | 0.00 | 41 | 1011.2 |
| 20260830154506 | 74 | 319 | 0.0 | 7.0 | 0.00 | 0.00 | 0.00 | 45 | 1011.1 |
| 20260830153104 | 72 | 328 | 3.0 | 13.0 | 0.00 | 0.00 | 0.00 | 48 | 1011.4 |
| 20260830151558 | 71 | 275 | 0.0 | 8.0 | 0.00 | 0.00 | 0.00 | 51 | 1011.6 |
| 20260830150054 | 70 | 257 | 1.0 | 10.0 | 0.00 | 0.00 | 0.00 | 55 | 1011.7 |
| 20260830144600 | 69 | 273 | 0.0 | 9.0 | 0.00 | 0.00 | 0.00 | 57 | 1011.9 |
| 20260830143047 | 68 | 345 | 0.0 | 7.0 | 0.00 | 0.00 | 0.00 | 60 | 1011.9 |
| 20260830141543 | 67 | 290 | 0.0 | 12.0 | 0.00 | 0.00 | 0.00 | 61 | 1012.0 |
| 20260830140041 | 66 | 249 | 1.0 | 9.0 | 0.00 | 0.00 | 0.00 | 64 | 1012.2 |
| 20260830134539 | 66 | 290 | 4.0 | 8.0 | 0.00 | 0.00 | 0.00 | 66 | 1012.3 |
| 20260830133041 | 65 | 224 | 0.0 | 8.0 | 0.00 | 0.00 | 0.00 | 68 | 1012.3 |
| 20260830131533 | 64 | 284 | 4.0 | 9.0 | 0.00 | 0.00 | 0.00 | 69 | 1012.3 |
| 20260830130030 | 63 | 273 | 2.0 | 9.0 | 0.00 | 0.00 | 0.00 | 70 | 1012.4 |
| 20260830124530 | 63 | 254 | 1.0 | 9.0 | 0.00 | 0.00 | 0.00 | 72 | 1012.6 |
| 20260830123026 | 62 | 282 | 1.0 | 9.0 | 0.00 | 0.00 | 0.00 | 73 | 1012.8 |
| 20260830121524 | 62 | 292 | 1.0 | 7.0 | 0.00 | 0.00 | 0.00 | 73 | 1012.7 |
| 20260830120023 | 61 | 211 | 0.0 | 6.0 | 0.00 | 0.00 | 0.00 | 73 | 1012.8 |
| 20260830114521 | 61 | 188 | 1.0 | 9.0 | 0.00 | 0.00 | 0.00 | 74 | 1013.0 |
| 20260830113020 | 60 | 214 | 0.0 | 3.0 | 0.00 | 0.00 | 0.00 | 74 | 1012.8 |
| 20260830111523 | 60 | 218 | 0.0 | 4.0 | 0.00 | 0.00 | 0.00 | 73 | 1012.8 |
| 20260830110019 | 59 | 239 | 0.0 | 4.0 | 0.00 | 0.00 | 0.00 | 73 | 1012.8 |
| 20260830104518 | 59 | 210 | 0.0 | 0.0 | 0.00 | 0.00 | 0.00 | 71 | 1012.8 |
| 20260830103017 | 60 | 199 | 0.0 | 8.0 | 0.00 | 0.00 | 0.00 | 70 | 1012.7 |
| 20260830101521 | 60 | 178 | 0.0 | 4.0 | 0.00 | 0.00 | 0.00 | 69 | 1012.6 |
| 20260830100019 | 60 | 257 | 0.0 | 6.0 | 0.00 | 0.00 | 0.00 | 68 | 1012.5 |
| 20260830094516 | 60 | 180 | 0.0 | 1.0 | 0.00 | 0.00 | 0.00 | 67 | 1012.3 |
| 20260830093016 | 60 | 171 | 0.0 | 3.0 | 0.00 | 0.00 | 0.00 | 66 | 1012.4 |
| 20260830091515 | 60 | 190 | 0.0 | 0.0 | 0.00 | 0.00 | 0.00 | 67 | 1012.4 |
| 20260830090033 | 60 | 184 | 0.0 | 4.0 | 0.00 | 0.00 | 0.00 | 66 | 1012.5 |
| 20260830084512 | 60 | 157 | 0.0 | 0.0 | 0.00 | 0.00 | 0.00 | 67 | 1012.5 |
| 20260830083031 | 60 | 155 | 0.0 | 1.0 | 0.00 | 0.00 | 0.00 | 67 | 1012.7 |
| 20260830081509 | 59 | 198 | 0.0 | 0.0 | 0.00 | 0.00 | 0.00 | 69 | 1012.7 |
| 20260830080008 | 58 | 140 | 0.0 | 0.0 | 0.00 | 0.00 | 0.00 | 71 | 1012.9 |
| 20260830074506 | 59 | 140 | 0.0 | 0.0 | 0.00 | 0.00 | 0.00 | 70 | 1012.9 |
| 20260830073005 | 59 | 140 | 0.0 | 0.0 | 0.00 | 0.00 | 0.00 | 69 | 1013.0 |
| 20260830071506 | 59 | 140 | 0.0 | 0.0 | 0.00 | 0.00 | 0.00 | 68 | 1013.0 |
| 20260830070002 | 60 | 181 | 0.0 | 0.0 | 0.00 | 0.00 | 0.00 | 66 | 1013.4 |
| 20260830064503 | 61 | 182 | 0.0 | 0.0 | 0.00 | 0.00 | 0.00 | 62 | 1013.4 |
| 20260830063100 | 61 | 157 | 0.0 | 0.0 | 0.00 | 0.00 | 0.00 | 61 | 1013.5 |
| 20260830061606 | 60 | 183 | 0.0 | 1.0 | 0.00 | 0.00 | 0.00 | 60 | 1013.7 |
| 20260830060055 | 60 | 179 | 0.0 | 0.0 | 0.00 | 0.00 | 0.00 | 61 | 1013.9 |
| 20260830054554 | 60 | 197 | 0.0 | 0.0 | 0.00 | 0.00 | 0.00 | 62 | 1014.1 |
| 20260830053052 | 60 | 194 | 0.0 | 3.0 | 0.00 | 0.00 | 0.00 | 61 | 1014.2 |
| 20260830051555 | 60 | 172 | 0.0 | 2.0 | 0.00 | 0.00 | 0.00 | 60 | 1014.2 |